createdAt,value
2022-11-06T00:00:31.709Z,14.35
2022-11-06T00:03:01.707Z,14.32
2022-11-06T00:05:48.604Z,14.33
2022-11-06T00:08:22.997Z,14.26
2022-11-06T00:10:53.496Z,14.21
2022-11-06T00:13:21.059Z,14.34
2022-11-06T00:15:48.481Z,14.29
2022-11-06T00:18:16.046Z,14.15
2022-11-06T00:20:43.751Z,14.17
2022-11-06T00:23:11.437Z,14.25
2022-11-06T00:25:41.890Z,14.27
2022-11-06T00:28:10.088Z,14.10
2022-11-06T00:30:38.080Z,14.17
2022-11-06T00:33:05.603Z,14.28
2022-11-06T00:35:33.351Z,14.09
2022-11-06T00:38:01.055Z,14.11
2022-11-06T00:40:28.502Z,14.08
2022-11-06T00:42:56.507Z,14.00
2022-11-06T00:45:25.600Z,14.00
2022-11-06T00:47:53.514Z,13.97
2022-11-06T00:50:21.172Z,13.87
2022-11-06T00:52:48.636Z,13.79
2022-11-06T00:55:16.265Z,13.84
2022-11-06T00:57:43.718Z,13.81
2022-11-06T01:00:12.270Z,13.78
2022-11-06T01:02:42.683Z,13.70
2022-11-06T01:05:10.358Z,13.73
2022-11-06T01:07:37.824Z,13.77
2022-11-06T01:10:06.715Z,13.71
2022-11-06T01:12:35.458Z,13.75
2022-11-06T01:15:03.089Z,13.84
2022-11-06T01:17:30.629Z,13.96
2022-11-06T01:19:58.209Z,13.80
2022-11-06T01:22:25.843Z,13.62
2022-11-06T01:24:53.447Z,13.46
2022-11-06T01:27:26.579Z,13.35
2022-11-06T01:29:55.133Z,13.38
2022-11-06T01:32:22.750Z,13.32
2022-11-06T01:34:51.924Z,13.17
2022-11-06T01:37:19.486Z,13.11
2022-11-06T01:39:48.583Z,13.07
2022-11-06T01:42:19.509Z,13.08
2022-11-06T01:45:08.295Z,13.04
2022-11-06T01:47:35.794Z,12.90
2022-11-06T01:50:12.909Z,13.02
2022-11-06T01:52:40.982Z,12.89
2022-11-06T01:55:21.665Z,12.72
2022-11-06T01:57:49.874Z,12.67
2022-11-06T02:00:17.995Z,12.71
2022-11-06T02:02:45.784Z,12.66
2022-11-06T02:05:13.522Z,12.69
2022-11-06T02:07:43.947Z,12.81
2022-11-06T02:10:12.013Z,12.95
2022-11-06T02:13:10.460Z,13.06
2022-11-06T02:16:04.781Z,13.20
2022-11-06T02:18:58.815Z,13.50
2022-11-06T02:21:51.976Z,13.39
2022-11-06T02:25:03.366Z,13.19
2022-11-06T02:27:32.044Z,13.18
2022-11-06T02:30:11.326Z,13.19
2022-11-06T02:33:00.201Z,13.34
2022-11-06T02:35:39.091Z,13.47
2022-11-06T02:38:17.485Z,13.79
2022-11-06T02:40:55.842Z,13.29
2022-11-06T02:43:37.345Z,13.06
2022-11-06T02:46:15.651Z,12.89
2022-11-06T02:48:49.261Z,12.48
2022-11-06T02:51:22.474Z,12.23
2022-11-06T02:53:50.874Z,12.41
2022-11-06T02:56:27.585Z,13.00
2022-11-06T02:59:07.108Z,13.48
2022-11-06T03:01:50.219Z,13.85
2022-11-06T03:04:32.609Z,13.85
2022-11-06T03:07:14.487Z,13.94
2022-11-06T03:09:42.469Z,14.14
2022-11-06T03:12:33.325Z,13.86
2022-11-06T03:15:24.585Z,13.27
2022-11-06T03:18:30.676Z,12.95
2022-11-06T03:21:14.111Z,12.81
2022-11-06T03:23:53.800Z,12.67
2022-11-06T03:26:32.548Z,12.50
2022-11-06T03:29:32.392Z,12.38
2022-11-06T03:32:15.983Z,12.32
2022-11-06T03:34:54.883Z,12.37
2022-11-06T03:37:34.051Z,12.37
2022-11-06T03:40:08.659Z,12.47
2022-11-06T03:42:39.214Z,12.54
2022-11-06T03:45:15.653Z,12.49
2022-11-06T03:47:49.003Z,12.68
2022-11-06T03:50:34.508Z,12.72
2022-11-06T03:53:10.130Z,12.64
2022-11-06T03:55:50.535Z,12.73
2022-11-06T03:58:23.723Z,12.69
2022-11-06T04:00:54.773Z,12.62
2022-11-06T04:03:52.235Z,12.73
2022-11-06T04:06:37.818Z,13.15
2022-11-06T04:09:27.651Z,13.41
2022-11-06T04:12:17.782Z,13.46
2022-11-06T04:14:51.443Z,13.91
2022-11-06T04:17:20.901Z,13.69
2022-11-06T04:19:54.533Z,13.54
2022-11-06T04:22:55.928Z,13.40
2022-11-06T04:26:05.783Z,13.45
2022-11-06T04:28:42.367Z,13.38
2022-11-06T04:31:37.739Z,13.47
2022-11-06T04:34:09.738Z,13.39
2022-11-06T04:37:18.305Z,13.00
2022-11-06T04:40:00.963Z,12.69
2022-11-06T04:42:49.231Z,12.67
2022-11-06T04:45:29.539Z,13.12
2022-11-06T04:47:57.775Z,12.80
2022-11-06T04:50:27.800Z,12.84
2022-11-06T04:52:56.634Z,12.68
2022-11-06T04:55:24.279Z,12.78
2022-11-06T04:57:51.938Z,12.63
2022-11-06T05:00:25.214Z,12.71
2022-11-06T05:02:52.698Z,12.67
2022-11-06T05:05:20.148Z,12.71
2022-11-06T05:07:47.644Z,12.71
2022-11-06T05:10:15.143Z,12.75
2022-11-06T05:12:42.553Z,12.83
2022-11-06T05:15:10.416Z,12.83
2022-11-06T05:17:37.881Z,12.78
2022-11-06T05:20:06.597Z,12.72
2022-11-06T05:22:52.280Z,12.64
2022-11-06T05:25:22.806Z,12.56
2022-11-06T05:27:50.354Z,12.60
2022-11-06T05:30:18.520Z,12.65
2022-11-06T05:32:46.036Z,12.72
2022-11-06T05:35:14.598Z,12.73
2022-11-06T05:37:42.158Z,12.82
2022-11-06T05:40:10.531Z,12.91
2022-11-06T05:42:41.878Z,12.89
2022-11-06T05:45:10.993Z,13.03
2022-11-06T05:47:41.804Z,13.04
2022-11-06T05:50:10.995Z,13.04
2022-11-06T05:52:39.058Z,13.14
2022-11-06T05:55:13.193Z,13.27
2022-11-06T05:57:42.338Z,13.36
2022-11-06T06:00:11.549Z,13.49
2022-11-06T06:02:43.985Z,13.61
2022-11-06T06:05:11.749Z,13.81
2022-11-06T06:07:39.185Z,13.92
2022-11-06T06:10:07.733Z,13.97
2022-11-06T06:12:36.197Z,14.03
2022-11-06T06:15:03.798Z,14.13
2022-11-06T06:17:31.287Z,14.21
2022-11-06T06:19:58.999Z,14.26
2022-11-06T06:22:26.442Z,14.28
2022-11-06T06:24:54.144Z,14.39
2022-11-06T06:27:21.734Z,14.39
2022-11-06T06:29:49.183Z,14.45
2022-11-06T06:32:16.624Z,14.54
2022-11-06T06:34:44.171Z,14.61
2022-11-06T06:37:14.366Z,14.65
2022-11-06T06:39:43.958Z,14.82
2022-11-06T06:42:11.583Z,14.92
2022-11-06T06:44:39.159Z,15.12
2022-11-06T06:47:09.402Z,15.21
2022-11-06T06:49:38.157Z,15.44
2022-11-06T06:52:05.817Z,15.48
2022-11-06T06:54:33.286Z,15.70
2022-11-06T06:57:00.766Z,15.72
2022-11-06T06:59:31.803Z,15.74
2022-11-06T07:01:59.308Z,15.72
2022-11-06T07:04:27.053Z,15.83
2022-11-06T07:06:56.448Z,15.85
2022-11-06T07:09:24.260Z,15.88
2022-11-06T07:11:51.765Z,15.93
2022-11-06T07:14:19.240Z,16.29
2022-11-06T07:16:52.540Z,16.63
2022-11-06T07:19:22.320Z,16.89
2022-11-06T07:21:53.688Z,17.06
2022-11-06T07:24:23.995Z,17.31
2022-11-06T07:26:51.505Z,17.53
2022-11-06T07:29:18.900Z,17.85
2022-11-06T07:31:46.302Z,17.75
2022-11-06T07:34:13.938Z,17.94
2022-11-06T07:36:41.421Z,17.88
2022-11-06T07:39:09.042Z,17.93
2022-11-06T07:41:37.119Z,17.84
2022-11-06T07:44:04.918Z,17.80
2022-11-06T07:46:32.394Z,17.96
2022-11-06T07:48:59.946Z,17.83
2022-11-06T07:51:27.404Z,18.20
2022-11-06T07:53:55.001Z,18.16
2022-11-06T07:56:22.416Z,18.26
2022-11-06T07:58:51.224Z,18.09
2022-11-06T08:01:19.445Z,18.12
2022-11-06T08:03:47.409Z,18.53
2022-11-06T08:06:15.105Z,18.41
2022-11-06T08:08:42.573Z,18.66
2022-11-06T08:11:12.006Z,18.77
2022-11-06T08:13:39.908Z,18.72
2022-11-06T08:16:13.696Z,18.83
2022-11-06T08:18:42.005Z,18.83
2022-11-06T08:21:09.811Z,18.80
2022-11-06T08:23:37.726Z,18.99
2022-11-06T08:26:07.863Z,18.97
2022-11-06T08:28:36.384Z,18.93
2022-11-06T08:31:06.304Z,19.02
2022-11-06T08:33:35.938Z,19.09
2022-11-06T08:36:05.623Z,19.04
2022-11-06T08:38:33.507Z,18.79
2022-11-06T08:41:13.139Z,19.00
2022-11-06T08:43:41.754Z,19.42
2022-11-06T08:46:11.918Z,19.52
2022-11-06T08:48:39.673Z,19.30
2022-11-06T08:51:07.747Z,19.07
2022-11-06T08:53:35.544Z,19.88
2022-11-06T08:56:05.208Z,19.78
2022-11-06T08:58:33.008Z,19.83
2022-11-06T09:01:00.620Z,19.75
2022-11-06T09:03:28.377Z,18.73
2022-11-06T09:05:56.733Z,18.51
2022-11-06T09:08:24.637Z,18.01
2022-11-06T09:10:58.185Z,17.44
2022-11-06T09:13:29.136Z,17.07
2022-11-06T09:15:56.799Z,16.45
2022-11-06T09:18:24.934Z,16.63
2022-11-06T09:20:56.765Z,16.41
2022-11-06T09:23:25.388Z,16.50
2022-11-06T09:25:56.137Z,16.52
2022-11-06T09:28:24.033Z,16.31
2022-11-06T09:30:51.606Z,17.05
2022-11-06T09:33:19.693Z,17.13
2022-11-06T09:35:47.747Z,16.90
2022-11-06T09:38:15.939Z,16.87
2022-11-06T09:40:51.956Z,17.29
2022-11-06T09:44:05.544Z,17.49
2022-11-06T09:46:47.915Z,17.06
2022-11-06T09:49:37.979Z,16.88
2022-11-06T09:52:44.702Z,16.75
2022-11-06T09:55:29.687Z,16.80
2022-11-06T09:58:16.136Z,16.76
2022-11-06T10:00:44.646Z,16.68
2022-11-06T10:03:27.147Z,16.69
2022-11-06T10:05:55.023Z,16.89
2022-11-06T10:08:30.662Z,16.96
2022-11-06T10:11:05.802Z,16.98
2022-11-06T10:14:06.310Z,17.07
2022-11-06T10:16:48.382Z,17.10
2022-11-06T10:19:37.832Z,17.57
2022-11-06T10:22:42.514Z,17.63
2022-11-06T10:25:24.967Z,17.75
2022-11-06T10:28:57.097Z,17.95
2022-11-06T10:31:46.775Z,18.39
2022-11-06T10:34:24.310Z,18.64
2022-11-06T10:37:00.684Z,18.71
2022-11-06T10:39:34.504Z,18.64
2022-11-06T10:42:17.949Z,18.57
2022-11-06T10:45:00.933Z,18.53
2022-11-06T10:47:40.028Z,18.53
2022-11-06T10:50:16.028Z,18.60
2022-11-06T10:52:49.094Z,18.74
2022-11-06T10:55:47.707Z,18.56
2022-11-06T10:58:22.486Z,18.52
2022-11-06T11:00:52.556Z,18.79
2022-11-06T11:03:32.435Z,18.51
2022-11-06T11:06:01.793Z,18.32
2022-11-06T11:08:40.437Z,18.34
2022-11-06T11:11:20.102Z,18.34
2022-11-06T11:14:26.149Z,18.32
2022-11-06T11:16:54.207Z,18.50
2022-11-06T11:19:44.431Z,18.55
2022-11-06T11:22:20.725Z,19.00
2022-11-06T11:25:06.060Z,18.42
2022-11-06T11:27:47.736Z,18.43
2022-11-06T11:30:26.700Z,18.57
2022-11-06T11:32:56.035Z,18.79
2022-11-06T11:35:31.977Z,18.99
2022-11-06T11:38:13.689Z,19.21
2022-11-06T11:40:42.733Z,19.42
2022-11-06T11:43:29.903Z,19.68
2022-11-06T11:46:23.590Z,19.94
2022-11-06T11:48:58.577Z,19.97
2022-11-06T11:51:43.881Z,20.11
2022-11-06T11:54:14.583Z,20.38
2022-11-06T11:57:07.487Z,21.13
2022-11-06T11:59:57.788Z,21.91
2022-11-06T12:02:46.374Z,22.00
2022-11-06T12:05:38.861Z,21.83
2022-11-06T12:08:16.287Z,21.91
2022-11-06T12:10:45.116Z,21.49
2022-11-06T12:13:19.919Z,21.41
2022-11-06T12:15:59.437Z,21.50
2022-11-06T12:18:39.151Z,21.27
2022-11-06T12:21:28.135Z,21.24
2022-11-06T12:24:07.331Z,21.08
2022-11-06T12:27:01.161Z,21.41
2022-11-06T12:29:37.824Z,21.35
2022-11-06T12:32:21.644Z,22.26
2022-11-06T12:35:37.069Z,22.95
2022-11-06T12:38:38.469Z,23.48
2022-11-06T12:41:38.094Z,23.14
2022-11-06T12:44:12.886Z,23.36
2022-11-06T12:47:08.609Z,22.76
2022-11-06T12:49:53.829Z,22.33
2022-11-06T12:55:42.693Z,21.92
2022-11-06T12:58:39.987Z,21.51
2022-11-06T13:01:23.110Z,21.59
2022-11-06T13:04:25.215Z,21.77
2022-11-06T13:07:19.861Z,21.53
2022-11-06T13:10:19.764Z,20.93
2022-11-06T13:13:15.936Z,21.00
2022-11-06T13:16:25.506Z,21.17
2022-11-06T13:19:31.477Z,21.40
2022-11-06T13:22:09.912Z,21.28
2022-11-06T13:25:06.303Z,21.39
2022-11-06T13:27:54.268Z,21.57
2022-11-06T13:30:27.134Z,21.15
2022-11-06T13:33:28.823Z,21.32
2022-11-06T13:35:59.140Z,21.35
2022-11-06T13:38:39.875Z,21.25
2022-11-06T13:41:17.848Z,21.30
2022-11-06T13:43:52.459Z,21.21
2022-11-06T13:47:06.035Z,21.58
2022-11-06T13:49:35.997Z,21.50
2022-11-06T13:52:14.761Z,20.89
2022-11-06T13:55:25.830Z,20.20
2022-11-06T13:58:52.408Z,19.95
2022-11-06T14:01:43.634Z,19.75
2022-11-06T14:04:57.152Z,20.01
2022-11-06T14:07:49.166Z,20.19
2022-11-06T14:10:23.772Z,20.21
2022-11-06T14:12:52.091Z,20.14
2022-11-06T14:15:39.899Z,20.17
2022-11-06T14:18:12.552Z,20.28
2022-11-06T14:20:40.716Z,20.19
2022-11-06T14:23:29.528Z,19.81
2022-11-06T14:26:38.450Z,19.58
2022-11-06T14:29:28.309Z,19.64
2022-11-06T14:32:21.412Z,19.02
2022-11-06T14:34:49.890Z,18.85
2022-11-06T14:37:43.100Z,18.64
2022-11-06T14:40:14.036Z,18.51
2022-11-06T14:42:46.215Z,18.46
2022-11-06T14:45:23.019Z,18.48
2022-11-06T14:47:56.565Z,18.40
2022-11-06T14:50:38.433Z,18.37
2022-11-06T14:53:21.995Z,18.04
2022-11-06T14:56:07.896Z,17.71
2022-11-06T14:58:39.677Z,17.44
2022-11-06T15:01:13.855Z,17.69
2022-11-06T15:04:36.404Z,17.19
2022-11-06T15:07:58.732Z,17.16
2022-11-06T15:10:44.932Z,16.98
2022-11-06T15:13:21.131Z,17.06
2022-11-06T15:15:57.866Z,17.02
2022-11-06T15:18:28.168Z,16.75
2022-11-06T15:21:03.554Z,16.68
2022-11-06T15:23:56.606Z,16.75
2022-11-06T15:26:50.730Z,16.80
2022-11-06T15:29:24.885Z,16.59
2022-11-06T15:32:03.791Z,16.44
2022-11-06T15:34:40.491Z,16.48
2022-11-06T15:37:21.882Z,16.51
2022-11-06T15:40:00.199Z,16.37
2022-11-06T15:42:35.177Z,16.37
2022-11-06T15:45:22.473Z,16.29
2022-11-06T15:48:01.366Z,16.31
2022-11-06T15:50:30.083Z,16.27
2022-11-06T15:53:17.628Z,16.28
2022-11-06T15:56:05.593Z,16.21
2022-11-06T15:58:38.030Z,16.06
2022-11-06T16:01:07.892Z,16.16
2022-11-06T16:03:54.719Z,16.29
2022-11-06T16:06:22.562Z,16.36
2022-11-06T16:08:51.423Z,16.35
2022-11-06T16:11:21.646Z,16.41
2022-11-06T16:13:49.981Z,16.29
2022-11-06T16:16:42.655Z,16.09
2022-11-06T16:19:30.740Z,15.83
2022-11-06T16:22:07.581Z,15.66
2022-11-06T16:24:49.648Z,15.64
2022-11-06T16:27:17.948Z,15.58
2022-11-06T16:29:52.808Z,15.57
2022-11-06T16:32:27.300Z,15.59
2022-11-06T16:34:56.240Z,15.63
2022-11-06T16:37:29.922Z,15.70
2022-11-06T16:39:59.552Z,15.69
2022-11-06T16:42:32.993Z,15.65
2022-11-06T16:45:20.755Z,15.63
2022-11-06T16:48:06.891Z,15.65
2022-11-06T16:50:54.909Z,15.79
2022-11-06T16:53:32.415Z,15.90
2022-11-06T16:56:09.322Z,15.90
2022-11-06T16:59:09.778Z,15.74
2022-11-06T17:01:47.008Z,15.80
2022-11-06T17:04:26.765Z,15.68
2022-11-06T17:06:54.915Z,15.93
2022-11-06T17:09:35.742Z,15.88
2022-11-06T17:12:10.460Z,15.48
2022-11-06T17:14:57.877Z,15.54
2022-11-06T17:17:27.217Z,15.52
2022-11-06T17:19:57.056Z,15.44
2022-11-06T17:22:26.346Z,15.39
2022-11-06T17:24:55.064Z,15.36
2022-11-06T17:27:26.920Z,15.14
2022-11-06T17:29:55.785Z,15.23
2022-11-06T17:32:24.781Z,15.20
2022-11-06T17:34:53.177Z,15.16
2022-11-06T17:37:29.783Z,15.03
2022-11-06T17:39:57.327Z,15.11
2022-11-06T17:42:24.820Z,15.64
2022-11-06T17:44:52.289Z,15.70
2022-11-06T17:47:42.669Z,15.55
2022-11-06T17:50:11.095Z,15.33
2022-11-06T17:52:39.029Z,15.32
2022-11-06T17:55:06.990Z,15.21
2022-11-06T17:57:35.819Z,15.52
2022-11-06T18:00:04.084Z,15.38
2022-11-06T18:02:59.671Z,15.22
2022-11-06T18:05:30.354Z,15.18
2022-11-06T18:07:57.927Z,15.17
2022-11-06T18:10:30.427Z,15.32
2022-11-06T18:12:59.469Z,15.36
2022-11-06T18:15:28.319Z,15.37
2022-11-06T18:17:55.872Z,15.69
2022-11-06T18:20:24.970Z,15.79
2022-11-06T18:22:53.718Z,15.60
2022-11-06T18:25:21.264Z,15.40
2022-11-06T18:27:48.721Z,15.29
2022-11-06T18:30:17.427Z,15.25
2022-11-06T18:32:46.120Z,15.24
2022-11-06T18:35:14.204Z,15.25
2022-11-06T18:37:41.681Z,15.22
2022-11-06T18:40:12.801Z,15.22
2022-11-06T18:42:41.906Z,15.23
2022-11-06T18:45:11.011Z,15.26
2022-11-06T18:47:39.035Z,15.29
2022-11-06T18:50:07.631Z,15.25
2022-11-06T18:52:56.486Z,15.37
2022-11-06T18:55:25.122Z,15.35
2022-11-06T18:57:53.025Z,15.35
2022-11-06T19:00:24.495Z,15.33
2022-11-06T19:02:53.443Z,15.48
2022-11-06T19:05:26.298Z,15.47
2022-11-06T19:08:07.823Z,15.54
2022-11-06T19:10:40.659Z,15.63
2022-11-06T19:13:08.252Z,15.58
2022-11-06T19:15:39.935Z,15.74
2022-11-06T19:18:12.458Z,15.71
2022-11-06T19:20:43.964Z,15.68
2022-11-06T19:23:15.685Z,15.67
2022-11-06T19:25:50.869Z,15.76
2022-11-06T19:28:35.619Z,15.72
2022-11-06T19:31:04.692Z,15.59
2022-11-06T19:33:32.683Z,15.57
2022-11-06T19:36:01.891Z,15.56
2022-11-06T19:38:32.337Z,15.45
2022-11-06T19:41:02.652Z,15.43
2022-11-06T19:43:39.521Z,15.80
2022-11-06T19:46:11.231Z,15.72
2022-11-06T19:48:41.095Z,15.63
2022-11-06T19:51:14.035Z,15.70
2022-11-06T19:53:44.430Z,15.68
2022-11-06T19:56:17.615Z,15.77
2022-11-06T19:58:45.519Z,15.79
2022-11-06T20:01:14.011Z,15.69
2022-11-06T20:03:42.738Z,15.60
2022-11-06T20:06:11.024Z,15.62
2022-11-06T20:08:43.532Z,15.60
2022-11-06T20:11:16.576Z,15.72
2022-11-06T20:13:46.333Z,15.61
2022-11-06T20:16:24.786Z,15.67
2022-11-06T20:18:58.051Z,15.64
2022-11-06T20:21:30.013Z,15.99
2022-11-06T20:23:57.958Z,16.32
2022-11-06T20:26:26.305Z,16.09
2022-11-06T20:29:04.141Z,15.80
2022-11-06T20:31:55.791Z,15.69
2022-11-06T20:34:24.720Z,15.68
2022-11-06T20:36:56.444Z,15.61
2022-11-06T20:39:23.998Z,15.53
2022-11-06T20:41:52.715Z,15.50
2022-11-06T20:44:21.236Z,15.50
2022-11-06T20:46:54.106Z,15.51
2022-11-06T20:49:21.782Z,15.53
2022-11-06T20:52:13.352Z,15.63
2022-11-06T20:54:46.666Z,15.65
2022-11-06T20:57:18.475Z,15.66
2022-11-06T20:59:49.483Z,15.63
2022-11-06T21:02:17.810Z,15.69
2022-11-06T21:04:49.494Z,15.62
2022-11-06T21:07:18.730Z,15.66
2022-11-06T21:09:49.444Z,15.68
2022-11-06T21:12:18.194Z,15.64
2022-11-06T21:14:45.595Z,15.73
2022-11-06T21:17:14.134Z,15.64
2022-11-06T21:19:41.618Z,15.64
2022-11-06T21:22:09.088Z,15.58
2022-11-06T21:24:38.159Z,15.56
2022-11-06T21:27:06.176Z,15.66
2022-11-06T21:29:33.779Z,15.69
2022-11-06T21:32:01.753Z,15.65
2022-11-06T21:34:53.361Z,15.61
2022-11-06T21:37:32.860Z,15.63
2022-11-06T21:40:00.865Z,15.56
2022-11-06T21:42:28.340Z,15.42
2022-11-06T21:44:55.831Z,15.39
2022-11-06T21:47:23.340Z,15.41
2022-11-06T21:49:54.013Z,15.50
2022-11-06T21:52:41.486Z,15.54
2022-11-06T21:55:29.629Z,15.62
2022-11-06T21:57:57.485Z,15.67
2022-11-06T22:00:24.987Z,15.60
2022-11-06T22:02:52.515Z,15.64
2022-11-06T22:05:19.991Z,15.61
2022-11-06T22:07:47.475Z,15.63
2022-11-06T22:10:15.594Z,15.72
2022-11-06T22:12:44.587Z,15.59
2022-11-06T22:15:12.154Z,15.64
2022-11-06T22:17:39.783Z,15.70
2022-11-06T22:20:08.320Z,15.66
2022-11-06T22:22:35.742Z,15.64
2022-11-06T22:25:03.745Z,15.69
2022-11-06T22:27:31.323Z,15.74
2022-11-06T22:29:58.783Z,15.69
2022-11-06T22:32:29.274Z,15.75
2022-11-06T22:34:56.730Z,15.79
2022-11-06T22:37:24.195Z,15.78
2022-11-06T22:39:51.922Z,15.79
2022-11-06T22:42:19.392Z,15.78
2022-11-06T22:44:46.897Z,15.83
2022-11-06T22:47:14.420Z,15.83
2022-11-06T22:49:41.923Z,15.91
2022-11-06T22:52:09.357Z,16.05
2022-11-06T22:54:36.965Z,15.94
2022-11-06T22:57:06.911Z,15.92
2022-11-06T22:59:34.561Z,15.92
2022-11-06T23:02:02.098Z,15.96
2022-11-06T23:04:29.607Z,16.10
2022-11-06T23:06:57.054Z,16.15
2022-11-06T23:09:24.633Z,16.04
2022-11-06T23:11:52.142Z,16.05
2022-11-06T23:14:19.602Z,15.99
2022-11-06T23:17:01.007Z,15.81
2022-11-06T23:19:31.019Z,15.85
2022-11-06T23:22:17.741Z,15.94
2022-11-06T23:24:45.585Z,15.87
2022-11-06T23:27:13.282Z,15.76
2022-11-06T23:29:40.941Z,15.70
2022-11-06T23:32:08.466Z,15.54
2022-11-06T23:34:35.937Z,15.48
2022-11-06T23:37:03.536Z,15.46
2022-11-06T23:39:31.023Z,15.37
2022-11-06T23:41:58.468Z,15.32
2022-11-06T23:44:44.691Z,15.33
2022-11-06T23:47:12.144Z,15.33
2022-11-06T23:49:39.636Z,15.30
2022-11-06T23:52:07.063Z,15.26
2022-11-06T23:54:34.579Z,15.27
2022-11-06T23:57:02.067Z,15.36
2022-11-06T23:59:29.489Z,15.30
